Time;durP1;ratioP1;P1;durP2;ratioP2;P2;SDS_P1;SDS_P2;PMS_P1;PMS_P2;Temp;Humidity;BMP_temperature;BMP_pressure;BME280_temperature;BME280_humidity;BME280_pressure;Samples;Min_cycle;Max_cycle;Signal;HPM_P1;HPM_P2
2022/08/11 00:00:33;;;;;;;1999.90;999.90;;;;;;;18.32;69.77;98320.41;5058391;28;20047;-76
2022/08/11 00:03:04;;;;;;;1999.90;999.90;;;;;;;18.36;69.71;98317.75;5056045;28;20484;-75
2022/08/11 00:05:30;;;;;;;1999.90;999.90;;;;;;;18.36;70.06;98313.00;5057823;28;20469;-74
2022/08/11 00:07:56;;;;;;;1999.90;999.90;;;;;;;18.46;69.75;98314.56;5059736;28;20115;-76
2022/08/11 00:10:25;;;;;;;1999.90;999.90;;;;;;;18.33;70.34;98315.63;5059823;28;20060;-75
2022/08/11 00:12:54;;;;;;;1999.90;999.90;;;;;;;18.33;70.39;98316.47;5056441;28;20480;-74
2022/08/11 00:15:21;;;;;;;1999.90;999.90;;;;;;;18.47;69.53;98316.19;5060884;28;20024;-72
2022/08/11 00:17:47;;;;;;;1999.90;999.90;;;;;;;18.40;69.18;98313.97;5078582;28;20058;-73
2022/08/11 00:20:14;;;;;;;1999.90;999.90;;;;;;;18.29;69.99;98304.44;5072060;28;20028;-73
2022/08/11 00:22:41;;;;;;;1999.90;999.90;;;;;;;18.14;70.73;98303.06;5051864;28;20025;-73
2022/08/11 00:25:16;;;;;;;1999.90;999.90;;;;;;;18.06;71.55;98309.47;5062127;28;20008;-73
2022/08/11 00:27:42;;;;;;;1999.90;999.90;;;;;;;18.14;71.43;98307.78;5058972;28;20017;-73
2022/08/11 00:30:09;;;;;;;1999.90;999.90;;;;;;;18.15;71.64;98301.94;5063022;28;20075;-72
2022/08/11 00:32:37;;;;;;;1999.90;999.90;;;;;;;18.19;71.21;98302.06;5046427;28;20094;-73
2022/08/11 00:35:06;;;;;;;1999.90;999.90;;;;;;;18.24;71.10;98306.59;5051370;28;20074;-73
2022/08/11 00:37:32;;;;;;;1999.90;999.90;;;;;;;18.16;71.64;98300.78;5055769;28;20032;-73
2022/08/11 00:39:58;;;;;;;1999.90;999.90;;;;;;;18.09;72.10;98299.69;5050457;28;20091;-73
2022/08/11 00:42:33;;;;;;;1999.90;999.90;;;;;;;17.99;73.13;98306.44;5051990;28;20064;-74
2022/08/11 00:45:20;;;;;;;1999.90;999.90;;;;;;;17.99;73.06;98308.38;5051863;28;20033;-74
2022/08/11 00:47:58;;;;;;;1999.90;999.90;;;;;;;17.95;73.34;98302.69;5036758;28;20105;-74
2022/08/11 00:50:51;;;;;;;1999.90;999.90;;;;;;;18.01;72.77;98301.34;5036719;28;20036;-74
2022/08/11 00:53:34;;;;;;;1999.90;999.90;;;;;;;17.96;73.58;98304.31;5036404;28;20028;-74
2022/08/11 00:56:36;;;;;;;1999.90;999.90;;;;;;;17.87;74.43;98306.34;5033312;28;20505;-74
2022/08/11 00:59:21;;;;;;;1999.90;999.90;;;;;;;17.76;75.50;98316.16;5032378;28;20040;-74
2022/08/11 01:01:58;;;;;;;1999.90;999.90;;;;;;;17.64;76.46;98307.75;5033379;28;20060;-74
2022/08/11 01:04:45;;;;;;;1999.90;999.90;;;;;;;17.41;78.43;98307.19;5033602;28;20315;-74
2022/08/11 01:07:57;;;;;;;1999.90;999.90;;;;;;;17.35;79.32;98307.69;5033182;28;20107;-74
2022/08/11 01:10:41;;;;;;;1999.90;999.90;;;;;;;17.39;79.28;98303.09;5023608;28;20053;-74
2022/08/11 01:13:37;;;;;;;1999.90;999.90;;;;;;;17.30;80.17;98305.91;5033342;28;20021;-74
2022/08/11 01:16:30;;;;;;;1999.90;999.90;;;;;;;17.33;80.40;98304.44;5033977;28;20566;-74
2022/08/11 01:19:26;;;;;;;1999.90;999.90;;;;;;;17.20;81.46;98302.69;5033448;28;20025;-74
2022/08/11 01:22:22;;;;;;;1999.90;999.90;;;;;;;17.24;81.67;98298.94;5025882;28;20118;-74
2022/08/11 01:25:18;;;;;;;1999.90;999.90;;;;;;;17.32;81.33;98300.84;5041997;28;20088;-74
2022/08/11 01:28:34;;;;;;;1999.90;999.90;;;;;;;17.40;81.51;98305.56;5041417;28;20037;-74
2022/08/11 01:31:15;;;;;;;1999.90;999.90;;;;;;;17.26;82.65;98306.91;5024884;28;20486;-74
2022/08/11 01:34:08;;;;;;;1999.90;999.90;;;;;;;17.19;83.49;98310.19;5033204;28;20271;-74
2022/08/11 01:36:58;;;;;;;1999.90;999.90;;;;;;;17.18;83.77;98302.19;5032782;28;20045;-74
2022/08/11 01:39:36;;;;;;;1999.90;999.90;;;;;;;17.19;83.65;98304.66;5031455;28;20142;-74
2022/08/11 01:45:49;;;;;;;1999.90;999.90;;;;;;;17.22;84.09;98309.53;5033330;28;20436;-74
2022/08/11 01:48:26;;;;;;;1999.90;999.90;;;;;;;17.13;84.27;98306.75;5032536;28;20034;-74
2022/08/11 01:51:22;;;;;;;1999.90;999.90;;;;;;;17.14;84.33;98302.88;5032370;28;20069;-74
2022/08/11 01:54:20;;;;;;;1999.90;999.90;;;;;;;17.09;83.67;98305.81;5031992;28;20033;-74
2022/08/11 01:57:02;;;;;;;1999.90;999.90;;;;;;;16.99;83.77;98303.41;5030271;28;20042;-74
2022/08/11 01:59:48;;;;;;;1999.90;999.90;;;;;;;16.85;83.76;98304.72;5032391;28;20152;-74
2022/08/11 02:02:46;;;;;;;1999.90;999.90;;;;;;;16.80;84.43;98302.94;5031509;28;20025;-74
2022/08/11 02:05:26;;;;;;;1999.90;999.90;;;;;;;16.63;85.61;98297.44;5031011;28;20545;-74
2022/08/11 02:08:17;;;;;;;1999.90;999.90;;;;;;;16.55;87.16;98292.72;5031950;28;20028;-74
2022/08/11 02:13:30;;;;;;;1999.90;999.90;;;;;;;16.56;88.04;98291.59;5032150;28;20104;-74
2022/08/11 02:16:11;;;;;;;1999.90;999.90;;;;;;;16.59;88.13;98293.69;5033668;28;20289;-74
2022/08/11 02:24:57;;;;;;;1999.90;999.90;;;;;;;16.55;88.44;98284.44;5025961;28;20053;-74
2022/08/11 02:27:33;;;;;;;1999.90;999.90;;;;;;;16.55;88.83;98289.97;5032284;28;20036;-74
2022/08/11 02:30:06;;;;;;;1999.90;999.90;;;;;;;16.59;88.67;98290.94;5031785;28;20035;-74
2022/08/11 02:35:41;;;;;;;1999.90;999.90;;;;;;;16.53;89.31;98286.69;5031686;28;20059;-74
2022/08/11 02:38:29;;;;;;;1999.90;999.90;;;;;;;16.52;89.55;98290.56;5032097;28;20041;-74
2022/08/11 02:44:31;;;;;;;1999.90;999.90;;;;;;;16.62;88.80;98290.28;5030324;28;20135;-74
2022/08/11 02:47:24;;;;;;;1999.90;999.90;;;;;;;16.56;89.22;98286.06;5031740;28;20468;-74
2022/08/11 02:50:04;;;;;;;1999.90;999.90;;;;;;;16.44;90.16;98288.66;5030079;28;20026;-74
2022/08/11 02:52:39;;;;;;;1999.90;999.90;;;;;;;16.38;91.89;98284.44;5031140;28;20555;-74
2022/08/11 02:55:21;;;;;;;1999.90;999.90;;;;;;;16.21;94.54;98284.41;5031350;28;20064;-74
2022/08/11 02:57:58;;;;;;;1999.90;999.90;;;;;;;16.14;95.80;98284.06;5031177;28;20091;-74
2022/08/11 03:00:25;;;;;;;1999.90;999.90;;;;;;;16.09;96.67;98287.81;5031074;28;20037;-74
2022/08/11 03:02:54;;;;;;;1999.90;999.90;;;;;;;16.05;97.46;98286.81;5031281;28;20029;-74
2022/08/11 03:05:46;;;;;;;1999.90;999.90;;;;;;;16.12;97.40;98291.88;5031306;28;20010;-74
2022/08/11 03:08:50;;;;;;;1999.90;999.90;;;;;;;15.98;97.27;98305.78;5034881;28;20060;-74
2022/08/11 03:17:27;;;;;;;1999.90;999.90;;;;;;;15.98;97.47;98292.81;5031182;28;20083;-74
2022/08/11 03:20:08;;;;;;;1999.90;999.90;;;;;;;15.97;97.86;98288.44;5031938;28;20029;-74
2022/08/11 03:22:48;;;;;;;1999.90;999.90;;;;;;;16.11;97.36;98290.22;5030929;28;20116;-74
2022/08/11 03:25:30;;;;;;;1999.90;999.90;;;;;;;16.05;97.91;98289.59;5030845;28;20086;-74
2022/08/11 03:28:26;;;;;;;1999.90;999.90;;;;;;;15.91;98.25;98292.47;5030190;28;20033;-70
2022/08/11 03:31:12;;;;;;;1999.90;999.90;;;;;;;15.85;99.22;98296.50;5031334;28;20022;-74
2022/08/11 03:34:01;;;;;;;1999.90;999.90;;;;;;;15.90;98.23;98290.88;5030345;28;20087;-74
2022/08/11 03:36:46;;;;;;;1999.90;999.90;;;;;;;15.85;98.66;98304.00;5030415;28;20053;-74
2022/08/11 03:39:47;;;;;;;1999.90;999.90;;;;;;;15.63;100.00;98295.81;5030710;28;20045;-74
2022/08/11 03:42:36;;;;;;;1999.90;999.90;;;;;;;15.54;100.00;98288.31;5027206;28;20064;-74
2022/08/11 03:45:11;;;;;;;1999.90;999.90;;;;;;;15.47;100.00;98278.88;5026760;28;20048;-74
2022/08/11 03:47:36;;;;;;;;;;;;;;;15.54;100.00;98280.06;5032172;28;20038;-75
2022/08/11 03:50:09;;;;;;;;;;;;;;;15.55;100.00;98278.09;5034271;28;19912;-74
2022/08/11 03:52:52;;;;;;;1999.90;999.90;;;;;;;15.52;100.00;98285.09;5035271;28;20374;-75
2022/08/11 03:55:41;;;;;;;1999.90;999.90;;;;;;;15.52;100.00;98285.09;5032455;28;20087;-74
2022/08/11 03:58:13;;;;;;;1999.90;999.90;;;;;;;15.42;100.00;98279.00;5030697;28;20090;-74
2022/08/11 04:00:57;;;;;;;1999.90;999.90;;;;;;;15.25;100.00;98284.47;5030571;28;20033;-74
2022/08/11 04:03:36;;;;;;;1999.90;999.90;;;;;;;15.35;100.00;98278.63;5030610;28;20136;-74
2022/08/11 04:06:42;;;;;;;1999.90;999.90;;;;;;;15.32;100.00;98280.09;5030677;28;20029;-74
2022/08/11 04:09:38;;;;;;;1999.90;999.90;;;;;;;15.32;100.00;98282.03;5029018;28;20457;-74
2022/08/11 04:12:06;;;;;;;;;;;;;;;15.45;100.00;98283.88;5030929;28;20037;-74
2022/08/11 04:18:20;;;;;;;1999.90;999.90;;;;;;;15.45;100.00;98278.38;5034962;28;20041;-74
2022/08/11 04:20:46;;;;;;;1999.90;999.90;;;;;;;15.47;100.00;98287.16;5030898;28;20080;-74
2022/08/11 04:23:25;;;;;;;1999.90;999.90;;;;;;;15.69;100.00;98281.56;5030287;28;20430;-74
2022/08/11 04:25:56;;;;;;;1999.90;999.90;;;;;;;15.78;100.00;98282.41;5030315;28;20013;-74
2022/08/11 04:28:36;;;;;;;1999.90;999.90;;;;;;;15.77;100.00;98286.28;5030429;28;20489;-74
2022/08/11 04:31:02;;;;;;;1999.90;999.90;;;;;;;15.84;100.00;98291.34;5033807;28;20064;-74
2022/08/11 04:33:58;;;;;;;1999.90;999.90;;;;;;;15.85;100.00;98285.47;5034023;28;20057;-74
2022/08/11 04:39:40;;;;;;;1999.90;999.90;;;;;;;15.88;100.00;98298.63;5038034;28;20039;-74
2022/08/11 04:45:37;;;;;;;1999.90;999.90;;;;;;;15.97;97.50;98307.78;5042206;28;20089;-74
2022/08/11 05:07:29;;;;;;;1999.90;999.90;;;;;;;16.16;90.77;98318.50;5000181;28;20029;-81
2022/08/11 05:10:36;;;;;;;1999.90;999.90;;;;;;;16.20;90.00;98324.19;5035452;28;20049;-77
2022/08/11 05:37:01;;;;;;;1999.90;999.90;;;;;;;17.12;84.97;98332.81;5014713;28;20111;-74
2022/08/11 05:56:19;;;;;;;1999.90;999.90;;;;;;;17.91;81.33;98343.28;5032359;28;20112;-72
2022/08/11 05:58:53;;;;;;;1999.90;999.90;;;;;;;18.18;79.55;98337.25;5032266;28;20025;-72
2022/08/11 06:01:30;;;;;;;1999.90;999.90;;;;;;;18.25;78.50;98338.69;5030516;28;20573;-71
2022/08/11 06:04:15;;;;;;;1999.90;999.90;;;;;;;18.46;77.31;98334.78;5031842;28;20274;-72
2022/08/11 06:06:57;;;;;;;1999.90;999.90;;;;;;;18.92;75.89;98332.97;5032061;28;20032;-73
2022/08/11 06:09:35;;;;;;;1999.90;999.90;;;;;;;19.34;73.53;98347.53;5032354;28;20056;-73
2022/08/11 06:12:10;;;;;;;1999.90;999.90;;;;;;;19.65;71.09;98342.31;5031910;28;20021;-72
2022/08/11 06:14:42;;;;;;;1999.90;999.90;;;;;;;19.93;69.77;98339.66;5036813;28;20037;-73
2022/08/11 06:17:07;;;;;;;1999.90;999.90;;;;;;;20.00;69.79;98340.72;5051600;28;20143;-73
2022/08/11 06:19:41;;;;;;;1999.90;999.90;;;;;;;20.49;67.19;98335.94;5050177;28;20112;-75
2022/08/11 06:22:11;;;;;;;1999.90;999.90;;;;;;;20.55;66.21;98347.66;5051110;28;20423;-73
2022/08/11 06:24:40;;;;;;;1999.90;999.90;;;;;;;20.59;66.32;98340.22;5050894;28;20093;-73
2022/08/11 06:27:06;;;;;;;1999.90;999.90;;;;;;;20.44;66.58;98336.19;5051673;28;20029;-73
2022/08/11 06:29:39;;;;;;;1999.90;999.90;;;;;;;20.40;67.63;98331.69;5051429;28;20028;-72
2022/08/11 06:32:05;;;;;;;1999.90;999.90;;;;;;;20.28;67.66;98329.72;5051169;28;20021;-73
2022/08/11 06:34:49;;;;;;;1999.90;999.90;;;;;;;21.01;64.63;98333.13;5051186;28;20036;-73
2022/08/11 06:37:30;;;;;;;1999.90;999.90;;;;;;;22.01;60.81;98323.50;5051161;28;20098;-73
2022/08/11 06:40:13;;;;;;;1999.90;999.90;;;;;;;21.87;59.57;98328.66;5051389;28;20029;-74
2022/08/11 06:42:52;;;;;;;1999.90;999.90;;;;;;;21.71;60.24;98336.22;5049822;28;20490;-73
2022/08/11 06:45:30;;;;;;;1999.90;999.90;;;;;;;22.26;58.51;98330.47;5051268;28;20100;-72
2022/08/11 06:47:59;;;;;;;1999.90;999.90;;;;;;;22.29;57.80;98335.31;5051256;28;20025;-74
2022/08/11 06:53:11;;;;;;;1999.90;999.90;;;;;;;22.82;56.42;98332.94;5050749;28;20099;-73
2022/08/11 07:01:16;;;;;;;1999.90;999.90;;;;;;;22.34;55.53;98326.66;5051030;28;20040;-73
2022/08/11 07:03:53;;;;;;;1999.90;999.90;;;;;;;22.29;55.20;98329.75;5050828;28;20135;-72
2022/08/11 07:06:31;;;;;;;1999.90;999.90;;;;;;;22.52;55.74;98321.50;5051183;28;20489;-72
2022/08/11 07:29:11;;;;;;;1999.90;999.90;;;;;;;23.61;50.45;98320.16;5050753;28;20047;-73
2022/08/11 07:31:45;;;;;;;1999.90;999.90;;;;;;;23.64;50.26;98322.22;5050682;28;20056;-74
2022/08/11 07:34:23;;;;;;;1999.90;999.90;;;;;;;25.00;47.33;98309.91;5050088;28;20486;-74
2022/08/11 07:36:52;;;;;;;1999.90;999.90;;;;;;;25.42;45.66;98317.97;5050041;28;20564;-74
2022/08/11 07:39:21;;;;;;;1999.90;999.90;;;;;;;24.74;45.47;98312.75;5049996;28;20029;-75
2022/08/11 07:41:49;;;;;;;1999.90;999.90;;;;;;;24.69;45.40;98315.88;5050044;28;20068;-75
2022/08/11 07:44:16;;;;;;;1999.90;999.90;;;;;;;24.31;45.69;98317.72;5050141;28;20057;-75
2022/08/11 07:52:26;;;;;;;1999.90;999.90;;;;;;;25.42;42.94;98315.19;5050974;28;20032;-75
2022/08/11 07:54:53;;;;;;;1999.90;999.90;;;;;;;26.84;39.73;98314.38;5050790;28;20037;-75
2022/08/11 08:19:17;;;;;;;1999.90;999.90;;;;;;;27.16;38.48;98311.69;5053886;28;20058;-74
2022/08/11 08:21:44;;;;;;;1999.90;999.90;;;;;;;26.14;38.56;98300.63;5053721;28;20048;-74
2022/08/11 08:24:10;;;;;;;1999.90;999.90;;;;;;;25.69;39.57;98308.28;5053719;28;20465;-74
2022/08/11 08:32:15;;;;;;;1999.90;999.90;;;;;;;26.25;39.90;98310.75;5051730;28;20082;-74
2022/08/11 08:34:41;;;;;;;1999.90;999.90;;;;;;;27.26;38.21;98311.69;5049577;28;20462;-74
2022/08/11 08:37:07;;;;;;;1999.90;999.90;;;;;;;27.86;36.54;98311.03;5052236;28;20053;-74
2022/08/11 08:39:33;;;;;;;1999.90;999.90;;;;;;;27.94;35.80;98307.03;5052129;28;20095;-74
2022/08/11 08:42:01;;;;;;;1999.90;999.90;;;;;;;26.93;37.43;98300.75;5051884;28;20031;-73
2022/08/11 08:44:27;;;;;;;1999.90;999.90;;;;;;;26.93;37.36;98289.53;5052107;28;20051;-75
2022/08/11 08:46:56;;;;;;;1999.90;999.90;;;;;;;27.69;36.44;98303.41;5050972;28;20044;-74
2022/08/11 08:49:30;;;;;;;1999.90;999.90;;;;;;;28.06;35.90;98306.66;5048106;28;20385;-74
2022/08/11 08:52:00;;;;;;;1999.90;999.90;;;;;;;27.24;37.09;98302.06;5052149;28;20100;-72
2022/08/11 08:54:37;;;;;;;1999.90;999.90;;;;;;;26.92;37.39;98305.56;5051539;28;20020;-73
2022/08/11 08:57:05;;;;;;;1999.90;999.90;;;;;;;27.00;36.92;98303.59;5048986;28;20021;-75
2022/08/11 08:59:34;;;;;;;1999.90;999.90;;;;;;;27.28;36.35;98286.84;5046432;28;20151;-73
2022/08/11 09:02:02;;;;;;;1999.90;999.90;;;;;;;27.67;36.76;98289.72;5051802;28;20025;-73
2022/08/11 09:04:29;;;;;;;1999.90;999.90;;;;;;;28.02;36.11;98291.75;5051855;28;20025;-77
2022/08/11 09:06:58;;;;;;;1999.90;999.90;;;;;;;26.85;37.60;98276.63;5051705;28;20029;-74
2022/08/11 09:09:24;;;;;;;1999.90;999.90;;;;;;;26.41;38.84;98294.44;5051723;28;21526;-75
2022/08/11 09:11:52;;;;;;;1999.90;999.90;;;;;;;26.17;39.51;98280.25;5051781;28;20559;-73
2022/08/11 09:14:23;;;;;;;1999.90;999.90;;;;;;;26.61;38.14;98281.72;5050211;28;20475;-73
2022/08/11 09:16:51;;;;;;;1999.90;999.90;;;;;;;27.43;36.96;98274.44;5050244;28;20496;-75
2022/08/11 09:19:19;;;;;;;1999.90;999.90;;;;;;;27.80;35.82;98284.53;5051531;28;20017;-75
2022/08/11 09:27:17;;;;;;;1999.90;999.90;;;;;;;27.66;36.00;98277.69;5051358;28;20479;-74
2022/08/11 09:29:44;;;;;;;1999.90;999.90;;;;;;;27.45;35.48;98272.03;5051299;28;20095;-72
2022/08/11 09:32:11;;;;;;;1999.90;999.90;;;;;;;27.37;35.26;98270.41;5049156;28;20455;-73
2022/08/11 09:34:38;;;;;;;1999.90;999.90;;;;;;;27.28;36.04;98267.16;5043842;28;20017;-74
2022/08/11 09:45:19;;;;;;;1999.90;999.90;;;;;;;28.07;35.90;98261.22;5039059;28;20091;-74
2022/08/11 09:47:45;;;;;;;1999.90;999.90;;;;;;;26.63;36.80;98244.84;5045650;28;20090;-73
2022/08/11 09:50:15;;;;;;;1999.90;999.90;;;;;;;27.14;36.36;98250.25;5051002;28;20128;-72
2022/08/11 09:52:44;;;;;;;1999.90;999.90;;;;;;;27.14;36.53;98247.44;5050611;28;20033;-73
2022/08/11 09:55:12;;;;;;;1999.90;999.90;;;;;;;28.18;34.61;98241.53;5045808;28;20489;-73
2022/08/11 10:00:39;;;;;;;1999.90;999.90;;;;;;;29.49;32.73;98233.34;5045752;28;20102;-78
2022/08/11 10:03:14;;;;;;;1999.90;999.90;;;;;;;30.04;32.07;98230.47;5052699;28;20061;-76
2022/08/11 10:08:29;;;;;;;1999.90;999.90;;;;;;;30.79;30.84;98222.00;5046961;28;20098;-74
2022/08/11 10:10:56;;;;;;;1999.90;999.90;;;;;;;30.25;31.46;98233.09;5050450;28;20499;-77
2022/08/11 10:13:28;;;;;;;1999.90;999.90;;;;;;;29.39;31.89;98214.47;5048530;28;20021;-75
2022/08/11 10:15:57;;;;;;;1999.90;999.90;;;;;;;30.04;31.47;98215.56;5049121;28;20473;-77
2022/08/11 10:18:41;;;;;;;1999.90;999.90;;;;;;;27.41;32.97;98209.34;5050060;28;20118;-81
2022/08/11 10:21:39;;;;;;;1999.90;999.90;;;;;;;27.13;34.96;98212.13;5051465;28;20029;-77
2022/08/11 10:26:53;;;;;;;1999.90;999.90;;;;;;;27.25;34.90;98206.16;5051493;28;20078;-74
2022/08/11 10:35:14;;;;;;;1999.90;999.90;;;;;;;27.01;34.03;98196.47;5050812;28;20070;-75
2022/08/11 10:37:42;;;;;;;1999.90;999.90;;;;;;;26.93;34.97;98194.03;5051517;28;20036;-74
2022/08/11 10:40:14;;;;;;;1999.90;999.90;;;;;;;26.57;35.68;98187.47;5052426;28;20020;-79
2022/08/11 10:48:09;;;;;;;1999.90;999.90;;;;;;;26.69;35.00;98177.91;5052881;28;20207;-76
2022/08/11 10:58:52;;;;;;;1999.90;999.90;;;;;;;27.90;32.64;98177.66;5062458;28;20097;-74
2022/08/11 11:01:33;;;;;;;1999.90;999.90;;;;;;;27.31;31.35;98176.44;5054180;28;20033;-76
2022/08/11 11:04:03;;;;;;;1999.90;999.90;;;;;;;27.29;31.73;98170.41;5039678;28;20024;-74
2022/08/11 11:07:03;;;;;;;1999.90;999.90;;;;;;;27.27;31.79;98167.19;5060181;28;20020;-74
2022/08/11 11:10:00;;;;;;;1999.90;999.90;;;;;;;27.21;31.06;98173.63;5046918;28;20037;-76
2022/08/11 11:18:10;;;;;;;1999.90;999.90;;;;;;;27.97;30.92;98148.69;5032549;28;20020;-75
2022/08/11 11:20:41;;;;;;;1999.90;999.90;;;;;;;28.09;29.35;98163.16;5048370;28;20063;-75
2022/08/11 11:23:18;;;;;;;1999.90;999.90;;;;;;;27.87;29.55;98155.94;5049791;28;20037;-74
2022/08/11 11:26:21;;;;;;;1999.90;999.90;;;;;;;27.34;31.42;98160.78;5049567;28;20040;-74
2022/08/11 11:29:24;;;;;;;1999.90;999.90;;;;;;;27.78;31.59;98157.56;5047949;28;20472;-75
2022/08/11 11:31:52;;;;;;;1999.90;999.90;;;;;;;27.70;31.80;98150.34;5066474;28;20086;-73
2022/08/11 11:34:29;;;;;;;1999.90;999.90;;;;;;;27.39;32.46;98149.94;5049591;28;20517;-74
2022/08/11 11:36:57;;;;;;;1999.90;999.90;;;;;;;27.71;32.06;98149.94;5052774;28;20045;-75
2022/08/11 11:39:26;;;;;;;1999.90;999.90;;;;;;;27.62;32.43;98141.13;5049681;28;20032;-75
2022/08/11 11:41:58;;;;;;;1999.90;999.90;;;;;;;28.42;31.34;98136.50;5050961;28;20033;-75
2022/08/11 11:44:24;;;;;;;1999.90;999.90;;;;;;;28.69;31.13;98143.22;5048169;28;20021;-74
2022/08/11 11:46:51;;;;;;;1999.90;999.90;;;;;;;27.60;31.67;98141.50;5050338;28;20501;-75
2022/08/11 11:49:19;;;;;;;1999.90;999.90;;;;;;;27.06;31.85;98130.66;5049867;28;20028;-74
2022/08/11 11:51:51;;;;;;;1999.90;999.90;;;;;;;26.46;32.27;98142.53;5051809;28;20385;-77
2022/08/11 11:54:20;;;;;;;1999.90;999.90;;;;;;;26.48;33.47;98134.53;5050177;28;20060;-74
2022/08/11 11:56:46;;;;;;;1999.90;999.90;;;;;;;26.54;33.48;98130.13;5050101;28;20033;-75
2022/08/11 12:01:58;;;;;;;1999.90;999.90;;;;;;;27.21;33.19;98118.22;5042338;28;20098;-75
2022/08/11 12:04:25;;;;;;;1999.90;999.90;;;;;;;27.07;33.32;98119.03;5050595;28;21098;-74
2022/08/11 12:08:08;;;;;;;1999.90;999.90;;;;;;;27.27;33.17;98113.81;5050103;28;20495;-74
2022/08/11 12:09:38;;;;;;;1999.90;999.90;;;;;;;26.67;33.46;98126.94;5048790;28;20025;-74
2022/08/11 12:14:48;;;;;;;1999.90;999.90;;;;;;;26.49;33.16;98108.06;5046960;28;20116;-74
2022/08/11 12:17:14;;;;;;;1999.90;999.90;;;;;;;26.90;32.28;98119.00;5046723;28;20450;-74
2022/08/11 12:19:39;;;;;;;1999.90;999.90;;;;;;;26.84;31.57;98104.56;5048051;28;20025;-75
2022/08/11 12:27:33;;;;;;;1999.90;999.90;;;;;;;27.56;31.72;98112.63;5051421;28;20485;-77
2022/08/11 12:30:05;;;;;;;1999.90;999.90;;;;;;;27.76;31.62;98098.09;5052699;28;20032;-75
2022/08/11 12:32:33;;;;;;;1999.90;999.90;;;;;;;28.06;30.74;98095.66;5046386;28;20039;-75
2022/08/11 12:35:00;;;;;;;1999.90;999.90;;;;;;;27.97;30.93;98092.44;5050163;28;20033;-75
2022/08/11 12:38:03;;;;;;;1999.90;999.90;;;;;;;27.52;30.98;98092.16;5051378;28;20068;-74
2022/08/11 12:46:05;;;;;;;1999.90;999.90;;;;;;;27.66;30.26;98083.66;5049486;28;20064;-74
2022/08/11 12:54:27;;;;;;;1999.90;999.90;;;;;;;27.79;30.63;98091.66;5046415;28;20114;-75
2022/08/11 13:05:15;;;;;;;1999.90;999.90;;;;;;;28.18;30.18;98067.06;5071664;28;20032;-74
2022/08/11 13:07:45;;;;;;;1999.90;999.90;;;;;;;28.50;29.37;98059.25;5055386;28;20055;-75
2022/08/11 13:10:14;;;;;;;1999.90;999.90;;;;;;;28.62;28.72;98070.03;5065007;28;20044;-74
2022/08/11 13:12:46;;;;;;;1999.90;999.90;;;;;;;28.02;29.61;98050.63;5053543;28;20104;-75
2022/08/11 13:15:23;;;;;;;1999.90;999.90;;;;;;;28.17;29.29;98054.19;5065914;28;20039;-75
2022/08/11 13:17:51;;;;;;;1999.90;999.90;;;;;;;28.38;28.23;98062.50;5046893;28;20017;-74
2022/08/11 13:20:22;;;;;;;1999.90;999.90;;;;;;;28.59;27.54;98056.78;5052131;28;20115;-74
2022/08/11 13:22:50;;;;;;;1999.90;999.90;;;;;;;28.84;28.07;98050.19;5053223;28;20430;-74
2022/08/11 13:25:17;;;;;;;1999.90;999.90;;;;;;;28.51;28.41;98046.75;5052775;28;20045;-74
2022/08/11 13:27:45;;;;;;;1999.90;999.90;;;;;;;28.42;28.39;98045.59;5054517;28;20024;-75
2022/08/11 13:32:58;;;;;;;1999.90;999.90;;;;;;;27.91;30.24;98032.19;5048861;28;20052;-71
2022/08/11 13:35:24;;;;;;;1999.90;999.90;;;;;;;27.60;29.96;98031.06;5045704;28;20131;-71
2022/08/11 13:37:50;;;;;;;1999.90;999.90;;;;;;;27.31;30.12;98026.69;5054277;28;20491;-72
2022/08/11 13:40:18;;;;;;;1999.90;999.90;;;;;;;27.16;30.86;98025.91;5062435;28;20393;-71
2022/08/11 13:42:45;;;;;;;1999.90;999.90;;;;;;;27.11;30.98;98032.75;5061997;28;20024;-72
2022/08/11 13:45:12;;;;;;;1999.90;999.90;;;;;;;27.29;30.64;98021.47;5055133;28;20144;-71
2022/08/11 13:47:38;;;;;;;1999.90;999.90;;;;;;;27.35;30.43;98025.47;5066960;28;20017;-71
2022/08/11 13:50:06;;;;;;;1999.90;999.90;;;;;;;27.40;29.86;98027.91;5056645;28;20031;-71
2022/08/11 13:52:33;;;;;;;1999.90;999.90;;;;;;;27.45;29.12;98021.06;5063039;28;20029;-71
2022/08/11 13:54:58;;;;;;;1999.90;999.90;;;;;;;27.55;29.59;98021.06;5065013;28;20430;-71
2022/08/11 13:57:25;;;;;;;1999.90;999.90;;;;;;;27.69;29.70;98020.22;5054440;28;20039;-74
2022/08/11 13:59:55;;;;;;;1999.90;999.90;;;;;;;27.85;29.37;98011.31;5070673;28;20078;-71
2022/08/11 14:02:30;;;;;;;1999.90;999.90;;;;;;;28.13;29.08;98017.63;5070218;28;20032;-72
2022/08/11 14:04:55;;;;;;;1999.90;999.90;;;;;;;28.21;28.32;98012.78;5070680;28;20035;-72
2022/08/11 14:07:24;;;;;;;1999.90;999.90;;;;;;;28.45;27.97;98006.19;5069261;28;20473;-73
2022/08/11 14:09:56;;;;;;;1999.90;999.90;;;;;;;28.80;28.05;98007.16;5051295;28;20282;-72
2022/08/11 14:15:23;;;;;;;1999.90;999.90;;;;;;;28.44;28.85;98004.59;5049923;28;20102;-73
2022/08/11 14:18:03;;;;;;;1999.90;999.90;;;;;;;28.42;29.34;97998.56;5050456;28;20020;-73
2022/08/11 14:22:05;;;;;;;1999.90;999.90;;;;;;;28.22;28.32;97994.69;5050291;28;20024;-73
2022/08/11 14:23:25;;;;;;;1999.90;999.90;;;;;;;28.35;28.82;97992.19;5049992;28;20036;-72
2022/08/11 14:28:36;;;;;;;1999.90;999.90;;;;;;;28.17;28.13;97989.47;5050410;28;20039;-72
2022/08/11 14:31:03;;;;;;;1999.90;999.90;;;;;;;27.95;28.37;97988.75;5048565;28;20086;-73
2022/08/11 14:33:32;;;;;;;1999.90;999.90;;;;;;;27.80;28.59;97975.16;5050102;28;20029;-73
2022/08/11 14:35:58;;;;;;;1999.90;999.90;;;;;;;27.68;28.74;97968.00;5050011;28;20045;-72
2022/08/11 14:38:24;;;;;;;1999.90;999.90;;;;;;;27.63;28.59;97985.28;5050174;28;20029;-73
2022/08/11 14:49:04;;;;;;;1999.90;999.90;;;;;;;27.71;28.69;97972.00;5050209;28;20352;-73
2022/08/11 14:51:31;;;;;;;1999.90;999.90;;;;;;;27.97;28.67;97968.66;5050152;28;20473;-72
2022/08/11 14:56:35;;;;;;;1999.90;999.90;;;;;;;28.20;28.18;97977.38;5050502;28;20481;-72
2022/08/11 14:56:44;;;;;;;1999.90;999.90;;;;;;;28.41;28.73;97974.44;5050325;28;20048;-73
2022/08/11 14:59:11;;;;;;;1999.90;999.90;;;;;;;28.50;28.68;97974.78;5048615;28;20485;-71
2022/08/11 15:04:22;;;;;;;1999.90;999.90;;;;;;;28.26;29.06;97969.31;5050560;28;20086;-72
2022/08/11 15:06:48;;;;;;;1999.90;999.90;;;;;;;28.16;28.83;97971.00;5050422;28;20032;-73
2022/08/11 15:09:14;;;;;;;1999.90;999.90;;;;;;;28.10;29.28;97970.63;5046978;28;20292;-71
2022/08/11 15:17:11;;;;;;;1999.90;999.90;;;;;;;27.63;29.37;97957.97;5049359;28;20044;-72
2022/08/11 15:25:11;;;;;;;1999.90;999.90;;;;;;;27.38;29.64;97976.13;5053034;28;20040;-73
2022/08/11 15:38:50;;;;;;;1999.90;999.90;;;;;;;26.98;29.78;97941.66;5062666;28;20106;-71
2022/08/11 15:46:57;;;;;;;1999.90;999.90;;;;;;;27.02;30.23;97938.88;5063686;28;20094;-72
2022/08/11 15:49:36;;;;;;;1999.90;999.90;;;;;;;26.94;29.88;97931.66;5051659;28;20037;-73
2022/08/11 15:52:04;;;;;;;1999.90;999.90;;;;;;;27.02;30.19;97933.25;5060845;28;20035;-71
2022/08/11 15:54:32;;;;;;;1999.90;999.90;;;;;;;27.07;30.10;97930.00;5045703;28;20033;-72
2022/08/11 15:57:04;;;;;;;1999.90;999.90;;;;;;;27.29;29.80;97927.94;5051255;28;20469;-70
2022/08/11 16:05:12;;;;;;;1999.90;999.90;;;;;;;27.48;29.24;97931.13;5050279;28;20040;-74
2022/08/11 16:07:40;;;;;;;1999.90;999.90;;;;;;;27.43;29.04;97914.69;5049098;28;20029;-74
2022/08/11 16:10:09;;;;;;;1999.90;999.90;;;;;;;27.31;29.28;97908.69;5047154;28;20436;-71
2022/08/11 16:16:12;;;;;;;1999.90;999.90;;;;;;;27.22;29.02;97909.13;5048110;28;20119;-71
2022/08/11 16:18:15;;;;;;;1999.90;999.90;;;;;;;27.23;28.88;97913.50;5045786;28;20155;-71